sensor_id;sensor_type;location;lat;lon;timestamp;P1;durP1;ratioP1;P2;durP2;ratioP2
22614;SDS011;11474;50.790;0.298;2022-12-04T00:02:06;62.03;;;26.05;;
22614;SDS011;11474;50.790;0.298;2022-12-04T00:04:32;58.15;;;25.65;;
22614;SDS011;11474;50.790;0.298;2022-12-04T00:06:58;59.08;;;25.83;;
22614;SDS011;11474;50.790;0.298;2022-12-04T00:09:24;60.22;;;25.60;;
22614;SDS011;11474;50.790;0.298;2022-12-04T00:11:50;59.17;;;25.67;;
22614;SDS011;11474;50.790;0.298;2022-12-04T00:14:16;60.00;;;24.63;;
22614;SDS011;11474;50.790;0.298;2022-12-04T00:16:42;60.83;;;26.27;;
22614;SDS011;11474;50.790;0.298;2022-12-04T00:19:08;59.47;;;24.83;;
22614;SDS011;11474;50.790;0.298;2022-12-04T00:21:34;60.00;;;27.05;;
22614;SDS011;11474;50.790;0.298;2022-12-04T00:24:00;62.50;;;26.80;;
22614;SDS011;11474;50.790;0.298;2022-12-04T00:26:27;58.05;;;25.98;;
22614;SDS011;11474;50.790;0.298;2022-12-04T00:28:55;61.33;;;26.95;;
22614;SDS011;11474;50.790;0.298;2022-12-04T00:31:22;57.13;;;25.92;;
22614;SDS011;11474;50.790;0.298;2022-12-04T00:33:48;59.88;;;27.55;;
22614;SDS011;11474;50.790;0.298;2022-12-04T00:36:16;55.95;;;26.88;;
22614;SDS011;11474;50.790;0.298;2022-12-04T00:38:42;59.08;;;26.75;;
22614;SDS011;11474;50.790;0.298;2022-12-04T00:41:09;61.03;;;27.77;;
22614;SDS011;11474;50.790;0.298;2022-12-04T00:43:36;59.65;;;27.20;;
22614;SDS011;11474;50.790;0.298;2022-12-04T00:46:02;53.90;;;26.65;;
22614;SDS011;11474;50.790;0.298;2022-12-04T00:48:28;58.80;;;27.45;;
22614;SDS011;11474;50.790;0.298;2022-12-04T00:50:55;59.50;;;28.83;;
22614;SDS011;11474;50.790;0.298;2022-12-04T00:53:23;57.40;;;28.48;;
22614;SDS011;11474;50.790;0.298;2022-12-04T00:55:49;58.70;;;26.88;;
22614;SDS011;11474;50.790;0.298;2022-12-04T00:58:15;55.75;;;26.85;;
22614;SDS011;11474;50.790;0.298;2022-12-04T01:00:41;58.23;;;26.53;;
22614;SDS011;11474;50.790;0.298;2022-12-04T01:03:07;59.17;;;27.37;;
22614;SDS011;11474;50.790;0.298;2022-12-04T01:05:43;59.30;;;28.53;;
22614;SDS011;11474;50.790;0.298;2022-12-04T01:08:10;58.53;;;28.17;;
22614;SDS011;11474;50.790;0.298;2022-12-04T01:10:40;55.97;;;27.80;;
22614;SDS011;11474;50.790;0.298;2022-12-04T01:13:07;60.80;;;28.85;;
22614;SDS011;11474;50.790;0.298;2022-12-04T01:15:36;56.05;;;27.77;;
22614;SDS011;11474;50.790;0.298;2022-12-04T01:18:03;53.92;;;27.23;;
22614;SDS011;11474;50.790;0.298;2022-12-04T01:20:29;55.13;;;28.70;;
22614;SDS011;11474;50.790;0.298;2022-12-04T01:22:55;63.10;;;29.17;;
22614;SDS011;11474;50.790;0.298;2022-12-04T01:25:21;59.33;;;29.90;;
22614;SDS011;11474;50.790;0.298;2022-12-04T01:27:47;55.05;;;28.42;;
22614;SDS011;11474;50.790;0.298;2022-12-04T01:30:13;60.00;;;29.67;;
22614;SDS011;11474;50.790;0.298;2022-12-04T01:32:39;57.60;;;28.23;;
22614;SDS011;11474;50.790;0.298;2022-12-04T01:35:05;62.42;;;30.10;;
22614;SDS011;11474;50.790;0.298;2022-12-04T01:37:31;62.17;;;29.58;;
22614;SDS011;11474;50.790;0.298;2022-12-04T01:39:57;57.00;;;29.40;;
22614;SDS011;11474;50.790;0.298;2022-12-04T01:42:24;60.72;;;30.27;;
22614;SDS011;11474;50.790;0.298;2022-12-04T01:47:34;59.93;;;30.37;;
22614;SDS011;11474;50.790;0.298;2022-12-04T01:50:02;59.53;;;30.70;;
22614;SDS011;11474;50.790;0.298;2022-12-04T01:52:28;58.55;;;29.88;;
22614;SDS011;11474;50.790;0.298;2022-12-04T01:54:56;60.15;;;30.83;;
22614;SDS011;11474;50.790;0.298;2022-12-04T01:57:24;60.22;;;30.65;;
22614;SDS011;11474;50.790;0.298;2022-12-04T01:59:56;65.35;;;33.03;;
22614;SDS011;11474;50.790;0.298;2022-12-04T02:02:42;62.83;;;31.98;;
22614;SDS011;11474;50.790;0.298;2022-12-04T02:05:11;62.63;;;32.30;;
22614;SDS011;11474;50.790;0.298;2022-12-04T02:07:37;65.18;;;33.47;;
22614;SDS011;11474;50.790;0.298;2022-12-04T02:10:04;65.35;;;33.25;;
22614;SDS011;11474;50.790;0.298;2022-12-04T02:21:28;70.57;;;36.13;;
22614;SDS011;11474;50.790;0.298;2022-12-04T02:23:33;70.68;;;36.63;;
22614;SDS011;11474;50.790;0.298;2022-12-04T02:26:10;75.72;;;39.78;;
22614;SDS011;11474;50.790;0.298;2022-12-04T02:28:56;73.03;;;39.83;;
22614;SDS011;11474;50.790;0.298;2022-12-04T02:31:30;79.03;;;41.55;;
22614;SDS011;11474;50.790;0.298;2022-12-04T02:33:58;80.88;;;41.25;;
22614;SDS011;11474;50.790;0.298;2022-12-04T02:36:27;85.05;;;42.55;;
22614;SDS011;11474;50.790;0.298;2022-12-04T02:38:55;84.25;;;41.08;;
22614;SDS011;11474;50.790;0.298;2022-12-04T02:41:29;81.97;;;42.50;;
22614;SDS011;11474;50.790;0.298;2022-12-04T02:44:04;85.50;;;40.88;;
22614;SDS011;11474;50.790;0.298;2022-12-04T02:49:01;81.68;;;41.70;;
22614;SDS011;11474;50.790;0.298;2022-12-04T02:51:29;84.53;;;44.40;;
22614;SDS011;11474;50.790;0.298;2022-12-04T02:53:57;79.05;;;41.33;;
22614;SDS011;11474;50.790;0.298;2022-12-04T02:56:28;82.47;;;40.67;;
22614;SDS011;11474;50.790;0.298;2022-12-04T02:58:56;80.55;;;41.53;;
22614;SDS011;11474;50.790;0.298;2022-12-04T03:01:25;83.00;;;42.92;;
22614;SDS011;11474;50.790;0.298;2022-12-04T03:03:56;84.80;;;40.70;;
22614;SDS011;11474;50.790;0.298;2022-12-04T03:06:22;74.80;;;39.58;;
22614;SDS011;11474;50.790;0.298;2022-12-04T03:08:51;74.45;;;40.10;;
22614;SDS011;11474;50.790;0.298;2022-12-04T03:11:18;73.13;;;38.58;;
22614;SDS011;11474;50.790;0.298;2022-12-04T03:13:54;78.70;;;40.63;;
22614;SDS011;11474;50.790;0.298;2022-12-04T03:16:23;73.57;;;38.33;;
22614;SDS011;11474;50.790;0.298;2022-12-04T03:19:06;72.45;;;38.47;;
22614;SDS011;11474;50.790;0.298;2022-12-04T03:21:34;72.82;;;39.50;;
22614;SDS011;11474;50.790;0.298;2022-12-04T03:24:09;77.80;;;38.83;;
22614;SDS011;11474;50.790;0.298;2022-12-04T03:26:46;71.93;;;38.97;;
22614;SDS011;11474;50.790;0.298;2022-12-04T03:29:14;69.03;;;37.67;;
22614;SDS011;11474;50.790;0.298;2022-12-04T03:34:17;71.10;;;36.58;;
22614;SDS011;11474;50.790;0.298;2022-12-04T03:36:51;70.97;;;38.00;;
22614;SDS011;11474;50.790;0.298;2022-12-04T03:39:53;71.90;;;38.35;;
22614;SDS011;11474;50.790;0.298;2022-12-04T03:42:21;68.00;;;36.28;;
22614;SDS011;11474;50.790;0.298;2022-12-04T03:44:52;66.43;;;35.33;;
22614;SDS011;11474;50.790;0.298;2022-12-04T03:47:35;69.38;;;36.08;;
22614;SDS011;11474;50.790;0.298;2022-12-04T03:52:37;66.88;;;34.22;;
22614;SDS011;11474;50.790;0.298;2022-12-04T03:55:10;64.57;;;34.88;;
22614;SDS011;11474;50.790;0.298;2022-12-04T03:57:39;65.93;;;34.08;;
22614;SDS011;11474;50.790;0.298;2022-12-04T04:02:35;64.25;;;34.35;;
22614;SDS011;11474;50.790;0.298;2022-12-04T04:05:02;60.40;;;33.28;;
22614;SDS011;11474;50.790;0.298;2022-12-04T04:07:49;61.42;;;32.28;;
22614;SDS011;11474;50.790;0.298;2022-12-04T04:10:17;67.38;;;32.72;;
22614;SDS011;11474;50.790;0.298;2022-12-04T04:12:46;59.33;;;33.63;;
22614;SDS011;11474;50.790;0.298;2022-12-04T04:15:35;58.35;;;32.13;;
22614;SDS011;11474;50.790;0.298;2022-12-04T04:18:21;58.60;;;30.65;;
22614;SDS011;11474;50.790;0.298;2022-12-04T04:21:06;54.65;;;30.35;;
22614;SDS011;11474;50.790;0.298;2022-12-04T04:23:51;53.72;;;29.13;;
22614;SDS011;11474;50.790;0.298;2022-12-04T04:26:37;51.95;;;28.10;;
22614;SDS011;11474;50.790;0.298;2022-12-04T04:29:04;54.77;;;29.20;;
22614;SDS011;11474;50.790;0.298;2022-12-04T04:34:15;56.03;;;30.38;;
22614;SDS011;11474;50.790;0.298;2022-12-04T04:36:48;60.20;;;31.23;;
22614;SDS011;11474;50.790;0.298;2022-12-04T04:39:18;59.72;;;31.73;;
22614;SDS011;11474;50.790;0.298;2022-12-04T04:41:49;64.53;;;32.93;;
22614;SDS011;11474;50.790;0.298;2022-12-04T04:44:21;64.87;;;32.67;;
22614;SDS011;11474;50.790;0.298;2022-12-04T04:46:51;63.17;;;34.50;;
22614;SDS011;11474;50.790;0.298;2022-12-04T04:49:20;65.32;;;34.10;;
22614;SDS011;11474;50.790;0.298;2022-12-04T04:51:47;71.55;;;36.75;;
22614;SDS011;11474;50.790;0.298;2022-12-04T04:54:13;76.15;;;39.20;;
22614;SDS011;11474;50.790;0.298;2022-12-04T04:56:44;68.63;;;36.75;;
22614;SDS011;11474;50.790;0.298;2022-12-04T04:59:11;69.05;;;36.38;;
22614;SDS011;11474;50.790;0.298;2022-12-04T05:01:37;67.40;;;36.45;;
22614;SDS011;11474;50.790;0.298;2022-12-04T05:04:04;66.45;;;35.42;;
22614;SDS011;11474;50.790;0.298;2022-12-04T05:06:30;71.03;;;35.67;;
22614;SDS011;11474;50.790;0.298;2022-12-04T05:08:56;64.97;;;33.72;;
22614;SDS011;11474;50.790;0.298;2022-12-04T05:11:23;68.10;;;33.30;;
22614;SDS011;11474;50.790;0.298;2022-12-04T05:13:49;61.20;;;32.50;;
22614;SDS011;11474;50.790;0.298;2022-12-04T05:16:15;61.55;;;32.63;;
22614;SDS011;11474;50.790;0.298;2022-12-04T05:18:41;58.33;;;31.42;;
22614;SDS011;11474;50.790;0.298;2022-12-04T05:21:31;58.42;;;31.35;;
22614;SDS011;11474;50.790;0.298;2022-12-04T05:23:57;52.60;;;29.48;;
22614;SDS011;11474;50.790;0.298;2022-12-04T05:26:23;49.03;;;27.08;;
22614;SDS011;11474;50.790;0.298;2022-12-04T05:28:49;45.35;;;25.25;;
22614;SDS011;11474;50.790;0.298;2022-12-04T05:31:15;48.03;;;25.13;;
22614;SDS011;11474;50.790;0.298;2022-12-04T05:33:41;43.85;;;24.27;;
22614;SDS011;11474;50.790;0.298;2022-12-04T05:36:08;44.90;;;24.10;;
22614;SDS011;11474;50.790;0.298;2022-12-04T05:38:35;42.65;;;24.10;;
22614;SDS011;11474;50.790;0.298;2022-12-04T05:41:03;42.67;;;24.13;;
22614;SDS011;11474;50.790;0.298;2022-12-04T05:43:29;46.20;;;24.35;;
22614;SDS011;11474;50.790;0.298;2022-12-04T05:46:02;41.10;;;23.52;;
22614;SDS011;11474;50.790;0.298;2022-12-04T05:48:28;41.42;;;22.85;;
22614;SDS011;11474;50.790;0.298;2022-12-04T05:50:54;40.25;;;21.95;;
22614;SDS011;11474;50.790;0.298;2022-12-04T05:53:21;36.53;;;21.35;;
22614;SDS011;11474;50.790;0.298;2022-12-04T05:55:53;41.30;;;20.87;;
22614;SDS011;11474;50.790;0.298;2022-12-04T05:58:20;39.80;;;20.90;;
22614;SDS011;11474;50.790;0.298;2022-12-04T06:00:46;36.93;;;20.40;;
22614;SDS011;11474;50.790;0.298;2022-12-04T06:03:12;36.42;;;20.73;;
22614;SDS011;11474;50.790;0.298;2022-12-04T06:05:38;36.90;;;20.05;;
22614;SDS011;11474;50.790;0.298;2022-12-04T06:08:04;38.60;;;19.15;;
22614;SDS011;11474;50.790;0.298;2022-12-04T06:10:30;34.00;;;18.80;;
22614;SDS011;11474;50.790;0.298;2022-12-04T06:12:56;35.30;;;17.80;;
22614;SDS011;11474;50.790;0.298;2022-12-04T06:15:22;32.38;;;17.48;;
22614;SDS011;11474;50.790;0.298;2022-12-04T06:17:48;35.22;;;18.42;;
22614;SDS011;11474;50.790;0.298;2022-12-04T06:20:14;36.70;;;18.88;;
22614;SDS011;11474;50.790;0.298;2022-12-04T06:22:40;33.43;;;18.30;;
22614;SDS011;11474;50.790;0.298;2022-12-04T06:25:06;37.45;;;19.08;;
22614;SDS011;11474;50.790;0.298;2022-12-04T06:27:33;40.67;;;20.03;;
22614;SDS011;11474;50.790;0.298;2022-12-04T06:29:59;42.17;;;21.60;;
22614;SDS011;11474;50.790;0.298;2022-12-04T06:32:25;45.13;;;23.45;;
22614;SDS011;11474;50.790;0.298;2022-12-04T06:34:52;47.30;;;24.48;;
22614;SDS011;11474;50.790;0.298;2022-12-04T06:37:19;44.20;;;22.45;;
22614;SDS011;11474;50.790;0.298;2022-12-04T06:39:45;47.05;;;23.50;;
22614;SDS011;11474;50.790;0.298;2022-12-04T06:42:11;42.03;;;21.13;;
22614;SDS011;11474;50.790;0.298;2022-12-04T06:44:37;37.92;;;20.35;;
22614;SDS011;11474;50.790;0.298;2022-12-04T06:47:03;43.95;;;23.20;;
22614;SDS011;11474;50.790;0.298;2022-12-04T06:49:29;43.97;;;22.40;;
22614;SDS011;11474;50.790;0.298;2022-12-04T06:51:56;38.58;;;20.13;;
22614;SDS011;11474;50.790;0.298;2022-12-04T06:54:21;42.13;;;21.05;;
22614;SDS011;11474;50.790;0.298;2022-12-04T06:56:48;39.10;;;20.90;;
22614;SDS011;11474;50.790;0.298;2022-12-04T06:59:14;43.25;;;20.90;;
22614;SDS011;11474;50.790;0.298;2022-12-04T07:01:40;42.80;;;21.88;;
22614;SDS011;11474;50.790;0.298;2022-12-04T07:04:06;35.70;;;19.55;;
22614;SDS011;11474;50.790;0.298;2022-12-04T07:06:36;43.22;;;21.40;;
22614;SDS011;11474;50.790;0.298;2022-12-04T07:09:04;41.50;;;20.13;;
22614;SDS011;11474;50.790;0.298;2022-12-04T07:11:30;38.33;;;19.97;;
22614;SDS011;11474;50.790;0.298;2022-12-04T07:13:57;45.42;;;23.00;;
22614;SDS011;11474;50.790;0.298;2022-12-04T07:16:23;44.03;;;23.23;;
22614;SDS011;11474;50.790;0.298;2022-12-04T07:18:50;46.50;;;24.52;;
22614;SDS011;11474;50.790;0.298;2022-12-04T07:21:20;45.53;;;25.27;;
22614;SDS011;11474;50.790;0.298;2022-12-04T07:23:50;44.00;;;24.00;;
22614;SDS011;11474;50.790;0.298;2022-12-04T07:26:16;43.83;;;22.77;;
22614;SDS011;11474;50.790;0.298;2022-12-04T07:28:42;41.15;;;22.05;;
22614;SDS011;11474;50.790;0.298;2022-12-04T07:31:12;38.55;;;20.33;;
22614;SDS011;11474;50.790;0.298;2022-12-04T07:33:39;37.90;;;20.10;;
22614;SDS011;11474;50.790;0.298;2022-12-04T07:36:06;38.35;;;22.08;;
22614;SDS011;11474;50.790;0.298;2022-12-04T07:38:33;41.03;;;21.47;;
22614;SDS011;11474;50.790;0.298;2022-12-04T07:40:59;43.25;;;23.92;;
22614;SDS011;11474;50.790;0.298;2022-12-04T07:43:25;41.00;;;23.33;;
22614;SDS011;11474;50.790;0.298;2022-12-04T07:45:53;44.80;;;23.77;;
22614;SDS011;11474;50.790;0.298;2022-12-04T07:48:19;45.38;;;22.85;;
22614;SDS011;11474;50.790;0.298;2022-12-04T07:50:45;44.22;;;23.38;;
22614;SDS011;11474;50.790;0.298;2022-12-04T07:53:11;46.65;;;25.00;;
22614;SDS011;11474;50.790;0.298;2022-12-04T07:55:37;45.78;;;22.35;;
22614;SDS011;11474;50.790;0.298;2022-12-04T07:58:03;43.05;;;21.88;;
22614;SDS011;11474;50.790;0.298;2022-12-04T08:00:29;41.53;;;21.98;;
22614;SDS011;11474;50.790;0.298;2022-12-04T08:02:55;33.90;;;18.38;;
22614;SDS011;11474;50.790;0.298;2022-12-04T08:05:21;29.88;;;16.25;;
22614;SDS011;11474;50.790;0.298;2022-12-04T08:07:47;29.65;;;16.55;;
22614;SDS011;11474;50.790;0.298;2022-12-04T08:10:13;33.15;;;17.50;;
22614;SDS011;11474;50.790;0.298;2022-12-04T08:12:39;34.92;;;17.17;;
22614;SDS011;11474;50.790;0.298;2022-12-04T08:15:05;31.27;;;17.42;;
22614;SDS011;11474;50.790;0.298;2022-12-04T08:17:31;31.05;;;15.40;;
22614;SDS011;11474;50.790;0.298;2022-12-04T08:19:57;31.05;;;16.48;;
22614;SDS011;11474;50.790;0.298;2022-12-04T08:22:24;31.40;;;16.20;;
22614;SDS011;11474;50.790;0.298;2022-12-04T08:24:50;34.58;;;17.63;;
22614;SDS011;11474;50.790;0.298;2022-12-04T08:27:16;35.28;;;17.45;;
22614;SDS011;11474;50.790;0.298;2022-12-04T08:29:42;34.65;;;16.83;;
22614;SDS011;11474;50.790;0.298;2022-12-04T08:32:08;35.30;;;16.85;;
22614;SDS011;11474;50.790;0.298;2022-12-04T08:34:34;36.40;;;17.70;;
22614;SDS011;11474;50.790;0.298;2022-12-04T08:37:00;29.52;;;15.63;;
22614;SDS011;11474;50.790;0.298;2022-12-04T08:39:26;31.88;;;16.83;;
22614;SDS011;11474;50.790;0.298;2022-12-04T08:41:52;34.93;;;17.43;;
22614;SDS011;11474;50.790;0.298;2022-12-04T08:44:18;31.42;;;16.58;;
22614;SDS011;11474;50.790;0.298;2022-12-04T08:46:44;29.13;;;15.55;;
22614;SDS011;11474;50.790;0.298;2022-12-04T08:49:10;29.13;;;14.60;;
22614;SDS011;11474;50.790;0.298;2022-12-04T08:51:36;25.33;;;13.90;;
22614;SDS011;11474;50.790;0.298;2022-12-04T08:54:03;32.60;;;15.50;;
22614;SDS011;11474;50.790;0.298;2022-12-04T08:56:30;29.45;;;15.00;;
22614;SDS011;11474;50.790;0.298;2022-12-04T08:58:57;29.30;;;15.43;;
22614;SDS011;11474;50.790;0.298;2022-12-04T09:01:23;33.72;;;17.58;;
22614;SDS011;11474;50.790;0.298;2022-12-04T09:03:50;38.72;;;19.48;;
22614;SDS011;11474;50.790;0.298;2022-12-04T09:06:16;35.72;;;18.00;;
22614;SDS011;11474;50.790;0.298;2022-12-04T09:08:43;39.90;;;18.75;;
22614;SDS011;11474;50.790;0.298;2022-12-04T09:11:10;39.90;;;19.45;;
22614;SDS011;11474;50.790;0.298;2022-12-04T09:13:36;41.95;;;19.70;;
22614;SDS011;11474;50.790;0.298;2022-12-04T09:16:03;35.83;;;19.25;;
22614;SDS011;11474;50.790;0.298;2022-12-04T09:18:30;39.72;;;19.80;;
22614;SDS011;11474;50.790;0.298;2022-12-04T09:20:57;42.60;;;19.98;;
22614;SDS011;11474;50.790;0.298;2022-12-04T09:23:24;42.92;;;21.10;;
22614;SDS011;11474;50.790;0.298;2022-12-04T09:25:50;40.40;;;20.17;;
22614;SDS011;11474;50.790;0.298;2022-12-04T09:28:17;41.67;;;20.13;;
22614;SDS011;11474;50.790;0.298;2022-12-04T09:30:43;37.22;;;19.58;;
22614;SDS011;11474;50.790;0.298;2022-12-04T09:33:09;38.08;;;20.52;;
22614;SDS011;11474;50.790;0.298;2022-12-04T09:35:37;42.25;;;21.20;;
22614;SDS011;11474;50.790;0.298;2022-12-04T09:38:03;40.03;;;19.77;;
22614;SDS011;11474;50.790;0.298;2022-12-04T09:40:31;42.90;;;19.60;;
22614;SDS011;11474;50.790;0.298;2022-12-04T09:45:26;43.20;;;20.83;;
22614;SDS011;11474;50.790;0.298;2022-12-04T09:47:55;39.47;;;20.73;;
22614;SDS011;11474;50.790;0.298;2022-12-04T09:52:50;42.72;;;21.73;;
22614;SDS011;11474;50.790;0.298;2022-12-04T09:56:06;43.65;;;21.88;;
22614;SDS011;11474;50.790;0.298;2022-12-04T09:58:09;39.63;;;20.17;;
22614;SDS011;11474;50.790;0.298;2022-12-04T10:00:39;42.47;;;20.90;;
22614;SDS011;11474;50.790;0.298;2022-12-04T10:03:09;42.55;;;20.85;;
22614;SDS011;11474;50.790;0.298;2022-12-04T10:08:28;42.97;;;20.65;;
22614;SDS011;11474;50.790;0.298;2022-12-04T10:16:10;39.72;;;20.80;;
22614;SDS011;11474;50.790;0.298;2022-12-04T10:26:16;40.75;;;20.77;;
22614;SDS011;11474;50.790;0.298;2022-12-04T10:28:44;45.63;;;21.85;;
22614;SDS011;11474;50.790;0.298;2022-12-04T10:31:12;42.47;;;21.52;;
22614;SDS011;11474;50.790;0.298;2022-12-04T10:33:43;41.28;;;22.35;;
22614;SDS011;11474;50.790;0.298;2022-12-04T10:36:12;39.10;;;20.37;;
22614;SDS011;11474;50.790;0.298;2022-12-04T10:38:55;40.58;;;21.17;;
22614;SDS011;11474;50.790;0.298;2022-12-04T10:41:44;40.42;;;20.80;;
22614;SDS011;11474;50.790;0.298;2022-12-04T10:44:12;39.35;;;20.73;;
22614;SDS011;11474;50.790;0.298;2022-12-04T10:46:38;41.42;;;20.35;;
22614;SDS011;11474;50.790;0.298;2022-12-04T10:49:18;35.57;;;19.20;;
22614;SDS011;11474;50.790;0.298;2022-12-04T10:51:45;38.03;;;18.15;;
22614;SDS011;11474;50.790;0.298;2022-12-04T10:54:17;38.10;;;18.88;;
22614;SDS011;11474;50.790;0.298;2022-12-04T10:56:55;38.58;;;19.65;;
22614;SDS011;11474;50.790;0.298;2022-12-04T10:59:22;38.65;;;18.67;;
22614;SDS011;11474;50.790;0.298;2022-12-04T11:01:49;35.60;;;18.30;;
22614;SDS011;11474;50.790;0.298;2022-12-04T11:04:21;38.95;;;19.73;;
22614;SDS011;11474;50.790;0.298;2022-12-04T11:06:48;37.50;;;19.50;;
22614;SDS011;11474;50.790;0.298;2022-12-04T11:09:19;38.72;;;19.63;;
22614;SDS011;11474;50.790;0.298;2022-12-04T11:11:46;40.95;;;20.10;;
22614;SDS011;11474;50.790;0.298;2022-12-04T11:14:14;41.15;;;20.98;;
22614;SDS011;11474;50.790;0.298;2022-12-04T11:16:42;40.80;;;20.83;;
22614;SDS011;11474;50.790;0.298;2022-12-04T11:19:22;39.72;;;19.85;;
22614;SDS011;11474;50.790;0.298;2022-12-04T11:21:49;36.25;;;19.70;;
22614;SDS011;11474;50.790;0.298;2022-12-04T11:24:19;43.97;;;20.63;;
22614;SDS011;11474;50.790;0.298;2022-12-04T11:26:46;41.50;;;21.15;;
22614;SDS011;11474;50.790;0.298;2022-12-04T11:29:13;38.20;;;19.88;;
22614;SDS011;11474;50.790;0.298;2022-12-04T11:31:40;37.47;;;18.97;;
22614;SDS011;11474;50.790;0.298;2022-12-04T11:34:07;37.60;;;19.23;;
22614;SDS011;11474;50.790;0.298;2022-12-04T11:36:35;40.10;;;19.33;;
22614;SDS011;11474;50.790;0.298;2022-12-04T11:41:36;36.55;;;19.63;;
22614;SDS011;11474;50.790;0.298;2022-12-04T11:44:04;37.10;;;18.33;;
22614;SDS011;11474;50.790;0.298;2022-12-04T11:46:31;36.92;;;18.83;;
22614;SDS011;11474;50.790;0.298;2022-12-04T11:48:58;38.88;;;18.83;;
22614;SDS011;11474;50.790;0.298;2022-12-04T11:54:16;35.83;;;18.92;;
22614;SDS011;11474;50.790;0.298;2022-12-04T11:56:55;40.87;;;19.23;;
22614;SDS011;11474;50.790;0.298;2022-12-04T12:04:58;38.13;;;19.00;;
22614;SDS011;11474;50.790;0.298;2022-12-04T12:07:44;40.13;;;19.83;;
22614;SDS011;11474;50.790;0.298;2022-12-04T12:10:16;39.50;;;18.48;;
22614;SDS011;11474;50.790;0.298;2022-12-04T12:15:17;36.05;;;18.58;;
22614;SDS011;11474;50.790;0.298;2022-12-04T12:20:31;37.73;;;18.53;;
22614;SDS011;11474;50.790;0.298;2022-12-04T12:23:07;39.13;;;18.77;;
22614;SDS011;11474;50.790;0.298;2022-12-04T12:25:43;38.97;;;19.02;;
22614;SDS011;11474;50.790;0.298;2022-12-04T12:33:17;34.83;;;16.70;;
22614;SDS011;11474;50.790;0.298;2022-12-04T12:38:17;33.27;;;15.60;;
22614;SDS011;11474;50.790;0.298;2022-12-04T12:40:52;32.08;;;15.85;;
22614;SDS011;11474;50.790;0.298;2022-12-04T12:43:26;29.40;;;15.23;;
22614;SDS011;11474;50.790;0.298;2022-12-04T12:45:55;27.02;;;15.48;;
22614;SDS011;11474;50.790;0.298;2022-12-04T12:48:26;30.23;;;15.30;;
22614;SDS011;11474;50.790;0.298;2022-12-04T12:50:55;26.45;;;14.88;;
22614;SDS011;11474;50.790;0.298;2022-12-04T12:53:24;30.83;;;15.95;;
22614;SDS011;11474;50.790;0.298;2022-12-04T12:55:52;31.58;;;15.77;;
22614;SDS011;11474;50.790;0.298;2022-12-04T13:01:09;28.30;;;15.52;;
22614;SDS011;11474;50.790;0.298;2022-12-04T13:06:04;34.28;;;16.20;;
22614;SDS011;11474;50.790;0.298;2022-12-04T13:08:36;33.33;;;17.40;;
22614;SDS011;11474;50.790;0.298;2022-12-04T13:11:20;31.98;;;16.42;;
22614;SDS011;11474;50.790;0.298;2022-12-04T13:13:50;30.40;;;16.43;;
22614;SDS011;11474;50.790;0.298;2022-12-04T13:16:22;34.60;;;17.33;;
22614;SDS011;11474;50.790;0.298;2022-12-04T13:19:07;34.45;;;16.80;;
22614;SDS011;11474;50.790;0.298;2022-12-04T13:21:35;31.80;;;16.92;;
22614;SDS011;11474;50.790;0.298;2022-12-04T13:26:38;32.42;;;16.63;;
22614;SDS011;11474;50.790;0.298;2022-12-04T13:39:42;26.65;;;14.50;;
22614;SDS011;11474;50.790;0.298;2022-12-04T13:42:23;27.00;;;14.10;;
22614;SDS011;11474;50.790;0.298;2022-12-04T13:44:51;27.92;;;14.48;;
22614;SDS011;11474;50.790;0.298;2022-12-04T13:47:54;26.37;;;13.80;;
22614;SDS011;11474;50.790;0.298;2022-12-04T13:52:42;23.98;;;13.38;;
22614;SDS011;11474;50.790;0.298;2022-12-04T14:00:37;26.80;;;13.82;;
22614;SDS011;11474;50.790;0.298;2022-12-04T14:03:04;25.03;;;13.43;;
22614;SDS011;11474;50.790;0.298;2022-12-04T14:05:33;24.30;;;13.45;;
22614;SDS011;11474;50.790;0.298;2022-12-04T14:08:06;24.05;;;13.48;;
22614;SDS011;11474;50.790;0.298;2022-12-04T14:10:33;28.20;;;14.18;;
22614;SDS011;11474;50.790;0.298;2022-12-04T14:13:02;23.92;;;13.15;;
22614;SDS011;11474;50.790;0.298;2022-12-04T14:15:29;22.98;;;13.50;;
22614;SDS011;11474;50.790;0.298;2022-12-04T14:20:32;25.40;;;13.90;;
22614;SDS011;11474;50.790;0.298;2022-12-04T14:25:41;24.53;;;13.83;;
22614;SDS011;11474;50.790;0.298;2022-12-04T14:28:20;24.48;;;12.68;;
22614;SDS011;11474;50.790;0.298;2022-12-04T14:31:24;25.88;;;13.63;;
22614;SDS011;11474;50.790;0.298;2022-12-04T14:33:48;25.73;;;13.32;;
22614;SDS011;11474;50.790;0.298;2022-12-04T14:36:22;26.85;;;13.05;;
22614;SDS011;11474;50.790;0.298;2022-12-04T14:39:01;25.13;;;13.82;;
22614;SDS011;11474;50.790;0.298;2022-12-04T14:41:28;23.33;;;13.57;;
22614;SDS011;11474;50.790;0.298;2022-12-04T14:43:54;22.50;;;13.35;;
22614;SDS011;11474;50.790;0.298;2022-12-04T14:46:41;23.30;;;12.88;;
22614;SDS011;11474;50.790;0.298;2022-12-04T14:51:39;22.77;;;12.38;;
22614;SDS011;11474;50.790;0.298;2022-12-04T14:54:24;23.52;;;12.32;;
22614;SDS011;11474;50.790;0.298;2022-12-04T14:59:20;22.83;;;11.82;;
22614;SDS011;11474;50.790;0.298;2022-12-04T15:01:47;25.23;;;12.52;;
22614;SDS011;11474;50.790;0.298;2022-12-04T15:04:24;23.90;;;12.35;;
22614;SDS011;11474;50.790;0.298;2022-12-04T15:06:51;23.95;;;12.18;;
22614;SDS011;11474;50.790;0.298;2022-12-04T15:09:22;25.48;;;12.43;;
22614;SDS011;11474;50.790;0.298;2022-12-04T15:14:57;21.33;;;11.93;;
22614;SDS011;11474;50.790;0.298;2022-12-04T15:17:24;23.90;;;12.40;;
22614;SDS011;11474;50.790;0.298;2022-12-04T15:19:50;23.38;;;12.20;;
22614;SDS011;11474;50.790;0.298;2022-12-04T15:24:42;21.08;;;12.07;;
22614;SDS011;11474;50.790;0.298;2022-12-04T15:27:09;25.00;;;12.40;;
22614;SDS011;11474;50.790;0.298;2022-12-04T15:29:36;23.60;;;11.97;;
22614;SDS011;11474;50.790;0.298;2022-12-04T15:32:06;22.75;;;12.25;;
22614;SDS011;11474;50.790;0.298;2022-12-04T15:34:37;23.50;;;12.00;;
22614;SDS011;11474;50.790;0.298;2022-12-04T15:37:05;23.63;;;12.35;;
22614;SDS011;11474;50.790;0.298;2022-12-04T15:39:34;19.73;;;11.65;;
22614;SDS011;11474;50.790;0.298;2022-12-04T15:42:05;23.17;;;12.30;;
22614;SDS011;11474;50.790;0.298;2022-12-04T15:44:33;24.90;;;12.93;;
22614;SDS011;11474;50.790;0.298;2022-12-04T15:47:00;25.27;;;13.18;;
22614;SDS011;11474;50.790;0.298;2022-12-04T15:49:30;23.77;;;13.13;;
22614;SDS011;11474;50.790;0.298;2022-12-04T15:54:35;22.77;;;12.93;;
22614;SDS011;11474;50.790;0.298;2022-12-04T15:57:03;24.50;;;12.95;;
22614;SDS011;11474;50.790;0.298;2022-12-04T15:59:30;24.50;;;12.73;;
22614;SDS011;11474;50.790;0.298;2022-12-04T16:01:59;24.88;;;12.65;;
22614;SDS011;11474;50.790;0.298;2022-12-04T16:04:27;22.80;;;13.63;;
22614;SDS011;11474;50.790;0.298;2022-12-04T16:06:53;24.88;;;13.68;;
22614;SDS011;11474;50.790;0.298;2022-12-04T16:09:22;24.63;;;13.75;;
22614;SDS011;11474;50.790;0.298;2022-12-04T16:12:01;26.02;;;14.10;;
22614;SDS011;11474;50.790;0.298;2022-12-04T16:14:27;26.08;;;14.35;;
22614;SDS011;11474;50.790;0.298;2022-12-04T16:16:54;26.58;;;13.57;;
22614;SDS011;11474;50.790;0.298;2022-12-04T16:21:47;22.80;;;13.70;;
22614;SDS011;11474;50.790;0.298;2022-12-04T16:24:13;24.07;;;13.43;;
22614;SDS011;11474;50.790;0.298;2022-12-04T16:26:39;23.42;;;13.38;;
22614;SDS011;11474;50.790;0.298;2022-12-04T16:29:06;24.80;;;13.40;;